sensor_id;sensor_type;location;lat;lon;timestamp;pressure;altitude;pressure_sealevel;temperature;humidity
68822;BME280;55834;50.870;4.606;2023-05-06T00:01:16;100925.59;;;13.09;50.39
68822;BME280;55834;50.870;4.606;2023-05-06T00:03:42;100929.09;;;13.10;50.33
68822;BME280;55834;50.870;4.606;2023-05-06T00:06:07;100926.69;;;13.04;50.34
68822;BME280;55834;50.870;4.606;2023-05-06T00:08:33;100926.56;;;13.07;50.23
68822;BME280;55834;50.870;4.606;2023-05-06T00:10:58;100937.28;;;13.04;50.25
68822;BME280;55834;50.870;4.606;2023-05-06T00:13:23;100928.34;;;13.06;50.28
68822;BME280;55834;50.870;4.606;2023-05-06T00:15:49;100919.59;;;13.04;50.61
68822;BME280;55834;50.870;4.606;2023-05-06T00:18:14;100919.88;;;12.97;50.72
68822;BME280;55834;50.870;4.606;2023-05-06T00:20:40;100929.53;;;12.98;50.83
68822;BME280;55834;50.870;4.606;2023-05-06T00:23:06;100921.22;;;12.83;50.41
68822;BME280;55834;50.870;4.606;2023-05-06T00:25:31;100922.34;;;12.76;51.76
68822;BME280;55834;50.870;4.606;2023-05-06T00:27:57;100926.50;;;12.83;50.58
68822;BME280;55834;50.870;4.606;2023-05-06T00:30:22;100921.53;;;12.74;50.08
68822;BME280;55834;50.870;4.606;2023-05-06T00:32:49;100918.69;;;12.80;51.15
68822;BME280;55834;50.870;4.606;2023-05-06T00:35:14;100914.34;;;12.78;51.43
68822;BME280;55834;50.870;4.606;2023-05-06T00:37:44;100914.34;;;12.78;50.77
68822;BME280;55834;50.870;4.606;2023-05-06T00:40:11;100907.72;;;12.64;50.00
68822;BME280;55834;50.870;4.606;2023-05-06T00:42:36;100905.78;;;12.70;51.80
68822;BME280;55834;50.870;4.606;2023-05-06T00:45:02;100905.28;;;12.58;51.46
68822;BME280;55834;50.870;4.606;2023-05-06T00:47:28;100901.81;;;12.56;50.77
68822;BME280;55834;50.870;4.606;2023-05-06T00:49:53;100902.53;;;12.61;51.30
68822;BME280;55834;50.870;4.606;2023-05-06T00:52:19;100903.44;;;12.62;50.38
68822;BME280;55834;50.870;4.606;2023-05-06T00:54:45;100898.16;;;12.60;50.53
68822;BME280;55834;50.870;4.606;2023-05-06T00:57:10;100906.22;;;12.56;51.25
68822;BME280;55834;50.870;4.606;2023-05-06T00:59:36;100906.28;;;12.54;50.95
68822;BME280;55834;50.870;4.606;2023-05-06T01:02:01;100899.41;;;12.49;50.66
68822;BME280;55834;50.870;4.606;2023-05-06T01:04:27;100903.75;;;12.51;51.31
68822;BME280;55834;50.870;4.606;2023-05-06T01:07:11;100900.28;;;12.49;51.35
68822;BME280;55834;50.870;4.606;2023-05-06T01:09:47;100888.00;;;12.47;51.30
68822;BME280;55834;50.870;4.606;2023-05-06T01:12:23;100895.19;;;12.43;51.71
68822;BME280;55834;50.870;4.606;2023-05-06T01:15:01;100893.41;;;12.43;51.11
68822;BME280;55834;50.870;4.606;2023-05-06T01:17:33;100894.25;;;12.44;51.79
68822;BME280;55834;50.870;4.606;2023-05-06T01:20:00;100891.72;;;12.41;51.36
68822;BME280;55834;50.870;4.606;2023-05-06T01:22:27;100887.50;;;12.35;52.19
68822;BME280;55834;50.870;4.606;2023-05-06T01:24:53;100893.59;;;12.39;52.23
68822;BME280;55834;50.870;4.606;2023-05-06T01:27:18;100894.38;;;12.41;51.31
68822;BME280;55834;50.870;4.606;2023-05-06T01:29:45;100890.22;;;12.34;51.62
68822;BME280;55834;50.870;4.606;2023-05-06T01:32:33;100891.09;;;12.33;52.20
68822;BME280;55834;50.870;4.606;2023-05-06T01:35:35;100900.94;;;12.29;52.35
68822;BME280;55834;50.870;4.606;2023-05-06T01:38:08;100897.63;;;12.23;52.16
68822;BME280;55834;50.870;4.606;2023-05-06T01:40:40;100907.25;;;12.25;52.36
68822;BME280;55834;50.870;4.606;2023-05-06T01:43:07;100899.34;;;12.24;52.05
68822;BME280;55834;50.870;4.606;2023-05-06T01:45:34;100899.44;;;12.22;52.16
68822;BME280;55834;50.870;4.606;2023-05-06T01:48:00;100896.00;;;12.18;52.02
68822;BME280;55834;50.870;4.606;2023-05-06T01:50:26;100897.94;;;12.13;52.03
68822;BME280;55834;50.870;4.606;2023-05-06T01:53:00;100900.63;;;12.12;51.89
68822;BME280;55834;50.870;4.606;2023-05-06T01:55:25;100900.59;;;12.13;51.61
68822;BME280;55834;50.870;4.606;2023-05-06T01:57:52;100902.63;;;12.05;51.56
68822;BME280;55834;50.870;4.606;2023-05-06T02:00:18;100896.56;;;12.02;51.86
68822;BME280;55834;50.870;4.606;2023-05-06T02:02:43;100896.47;;;11.75;52.82
68822;BME280;55834;50.870;4.606;2023-05-06T02:05:09;100907.03;;;11.77;52.93
68822;BME280;55834;50.870;4.606;2023-05-06T02:07:34;100904.78;;;11.63;53.33
68822;BME280;55834;50.870;4.606;2023-05-06T02:10:00;100900.53;;;11.59;52.95
68822;BME280;55834;50.870;4.606;2023-05-06T02:12:25;100906.41;;;11.68;53.18
68822;BME280;55834;50.870;4.606;2023-05-06T02:14:50;100898.44;;;11.70;52.91
68822;BME280;55834;50.870;4.606;2023-05-06T02:17:16;100909.34;;;11.58;52.24
68822;BME280;55834;50.870;4.606;2023-05-06T02:19:41;100904.00;;;11.61;53.32
68822;BME280;55834;50.870;4.606;2023-05-06T02:22:06;100897.06;;;11.57;53.36
68822;BME280;55834;50.870;4.606;2023-05-06T02:24:32;100901.28;;;11.62;52.75
68822;BME280;55834;50.870;4.606;2023-05-06T02:26:57;100897.56;;;11.69;53.21
68822;BME280;55834;50.870;4.606;2023-05-06T02:29:23;100895.59;;;11.76;52.65
68822;BME280;55834;50.870;4.606;2023-05-06T02:31:48;100895.50;;;11.79;51.89
68822;BME280;55834;50.870;4.606;2023-05-06T02:34:14;100891.81;;;11.83;51.73
68822;BME280;55834;50.870;4.606;2023-05-06T02:36:40;100904.56;;;11.70;51.14
68822;BME280;55834;50.870;4.606;2023-05-06T02:39:05;100903.75;;;11.68;52.25
68822;BME280;55834;50.870;4.606;2023-05-06T02:41:31;100900.16;;;11.71;51.80
68822;BME280;55834;50.870;4.606;2023-05-06T02:43:56;100898.25;;;11.74;51.76
68822;BME280;55834;50.870;4.606;2023-05-06T02:46:22;100904.06;;;11.58;51.33
68822;BME280;55834;50.870;4.606;2023-05-06T02:48:47;100901.53;;;11.53;52.36
68822;BME280;55834;50.870;4.606;2023-05-06T02:51:12;100899.69;;;11.57;52.26
68822;BME280;55834;50.870;4.606;2023-05-06T02:53:38;100899.03;;;11.48;52.12
68822;BME280;55834;50.870;4.606;2023-05-06T02:56:03;100903.53;;;11.45;52.72
68822;BME280;55834;50.870;4.606;2023-05-06T02:58:30;100901.81;;;11.44;52.85
68822;BME280;55834;50.870;4.606;2023-05-06T03:00:55;100908.84;;;11.43;52.90
68822;BME280;55834;50.870;4.606;2023-05-06T03:03:21;100900.81;;;11.48;52.62
68822;BME280;55834;50.870;4.606;2023-05-06T03:05:46;100898.44;;;11.39;52.70
68822;BME280;55834;50.870;4.606;2023-05-06T03:08:12;100900.22;;;11.38;52.62
68822;BME280;55834;50.870;4.606;2023-05-06T03:10:37;100911.78;;;11.34;52.44
68822;BME280;55834;50.870;4.606;2023-05-06T03:13:03;100915.25;;;11.36;52.64
68822;BME280;55834;50.870;4.606;2023-05-06T03:15:28;100917.25;;;11.28;53.04
68822;BME280;55834;50.870;4.606;2023-05-06T03:17:54;100916.34;;;11.29;52.78
68822;BME280;55834;50.870;4.606;2023-05-06T03:20:20;100917.91;;;11.35;52.70
68822;BME280;55834;50.870;4.606;2023-05-06T03:22:45;100910.72;;;11.40;52.45
68822;BME280;55834;50.870;4.606;2023-05-06T03:25:10;100916.16;;;11.35;53.57
68822;BME280;55834;50.870;4.606;2023-05-06T03:27:36;100914.38;;;11.36;53.29
68822;BME280;55834;50.870;4.606;2023-05-06T03:30:02;100910.72;;;11.40;52.64
68822;BME280;55834;50.870;4.606;2023-05-06T03:32:28;100912.59;;;11.36;52.14
68822;BME280;55834;50.870;4.606;2023-05-06T03:34:53;100911.69;;;11.37;52.43
68822;BME280;55834;50.870;4.606;2023-05-06T03:37:19;100909.13;;;11.34;52.21
68822;BME280;55834;50.870;4.606;2023-05-06T03:39:44;100904.69;;;11.35;52.93
68822;BME280;55834;50.870;4.606;2023-05-06T03:42:09;100909.00;;;11.39;53.08
68822;BME280;55834;50.870;4.606;2023-05-06T03:44:35;100906.47;;;11.36;52.75
68822;BME280;55834;50.870;4.606;2023-05-06T03:47:00;100903.94;;;11.31;52.20
68822;BME280;55834;50.870;4.606;2023-05-06T03:49:26;100905.41;;;11.10;53.43
68822;BME280;55834;50.870;4.606;2023-05-06T03:51:51;100907.13;;;11.13;53.66
68822;BME280;55834;50.870;4.606;2023-05-06T03:54:17;100900.88;;;11.15;52.81
68822;BME280;55834;50.870;4.606;2023-05-06T03:56:43;100904.25;;;11.20;52.76
68822;BME280;55834;50.870;4.606;2023-05-06T03:59:08;100903.53;;;11.15;52.81
68822;BME280;55834;50.870;4.606;2023-05-06T04:01:34;100902.88;;;11.05;53.25
68822;BME280;55834;50.870;4.606;2023-05-06T04:03:59;100900.34;;;11.02;53.15
68822;BME280;55834;50.870;4.606;2023-05-06T04:06:25;100908.31;;;11.01;53.55
68822;BME280;55834;50.870;4.606;2023-05-06T04:08:51;100899.38;;;11.05;52.89
68822;BME280;55834;50.870;4.606;2023-05-06T04:11:16;100902.88;;;11.07;52.74
68822;BME280;55834;50.870;4.606;2023-05-06T04:13:42;100902.97;;;11.02;52.31
68822;BME280;55834;50.870;4.606;2023-05-06T04:16:07;100900.31;;;11.04;52.87
68822;BME280;55834;50.870;4.606;2023-05-06T04:18:34;100900.31;;;11.04;52.39
68822;BME280;55834;50.870;4.606;2023-05-06T04:20:59;100901.13;;;11.06;52.56
68822;BME280;55834;50.870;4.606;2023-05-06T04:23:25;100901.94;;;11.08;52.59
68822;BME280;55834;50.870;4.606;2023-05-06T04:25:50;100907.97;;;11.13;52.96
68822;BME280;55834;50.870;4.606;2023-05-06T04:28:16;100907.13;;;11.11;52.41
68822;BME280;55834;50.870;4.606;2023-05-06T04:30:45;100904.59;;;11.08;52.22
68822;BME280;55834;50.870;4.606;2023-05-06T04:33:11;100910.81;;;11.05;52.11
68822;BME280;55834;50.870;4.606;2023-05-06T04:35:37;100915.25;;;11.05;52.21
68822;BME280;55834;50.870;4.606;2023-05-06T04:38:03;100905.50;;;11.07;52.63
68822;BME280;55834;50.870;4.606;2023-05-06T04:40:29;100916.16;;;11.04;52.30
68822;BME280;55834;50.870;4.606;2023-05-06T04:42:54;100908.59;;;10.90;52.55
68822;BME280;55834;50.870;4.606;2023-05-06T04:45:20;100921.63;;;10.98;53.80
68822;BME280;55834;50.870;4.606;2023-05-06T04:47:47;100923.13;;;11.06;53.50
68822;BME280;55834;50.870;4.606;2023-05-06T04:50:12;100913.22;;;11.15;53.29
68822;BME280;55834;50.870;4.606;2023-05-06T04:52:38;100921.00;;;11.19;53.09
68822;BME280;55834;50.870;4.606;2023-05-06T04:55:04;100917.31;;;11.26;53.02
68822;BME280;55834;50.870;4.606;2023-05-06T04:57:32;100923.56;;;11.22;52.72
68822;BME280;55834;50.870;4.606;2023-05-06T04:59:57;100926.94;;;11.27;52.99
68822;BME280;55834;50.870;4.606;2023-05-06T05:02:23;100941.00;;;11.29;53.02
68822;BME280;55834;50.870;4.606;2023-05-06T05:04:48;100935.53;;;11.36;53.64
68822;BME280;55834;50.870;4.606;2023-05-06T05:07:14;100930.00;;;11.43;53.26
68822;BME280;55834;50.870;4.606;2023-05-06T05:09:40;100933.22;;;11.56;53.14
68822;BME280;55834;50.870;4.606;2023-05-06T05:12:05;100939.06;;;11.67;53.42
68822;BME280;55834;50.870;4.606;2023-05-06T05:14:31;100943.19;;;11.76;53.76
68822;BME280;55834;50.870;4.606;2023-05-06T05:16:56;100938.59;;;11.83;53.79
68822;BME280;55834;50.870;4.606;2023-05-06T05:19:22;100947.16;;;11.91;53.45
68822;BME280;55834;50.870;4.606;2023-05-06T05:21:47;100947.06;;;11.94;53.33
68822;BME280;55834;50.870;4.606;2023-05-06T05:24:13;100944.03;;;12.06;53.21
68822;BME280;55834;50.870;4.606;2023-05-06T05:26:38;100947.88;;;12.24;53.63
68822;BME280;55834;50.870;4.606;2023-05-06T05:29:04;100953.66;;;12.37;53.51
68822;BME280;55834;50.870;4.606;2023-05-06T05:31:30;100958.34;;;12.55;53.46
68822;BME280;55834;50.870;4.606;2023-05-06T05:33:56;100950.47;;;12.80;53.30
68822;BME280;55834;50.870;4.606;2023-05-06T05:36:22;100956.69;;;13.04;52.81
68822;BME280;55834;50.870;4.606;2023-05-06T05:38:48;100958.75;;;13.21;52.65
68822;BME280;55834;50.870;4.606;2023-05-06T05:41:14;100960.84;;;13.37;52.44
68822;BME280;55834;50.870;4.606;2023-05-06T05:43:40;100955.75;;;13.56;52.19
68822;BME280;55834;50.870;4.606;2023-05-06T05:46:05;100958.38;;;13.81;52.35
68822;BME280;55834;50.870;4.606;2023-05-06T05:48:30;100952.13;;;14.04;51.89
68822;BME280;55834;50.870;4.606;2023-05-06T05:50:57;100942.38;;;14.26;51.79
68822;BME280;55834;50.870;4.606;2023-05-06T05:53:22;100945.19;;;14.45;51.68
68822;BME280;55834;50.870;4.606;2023-05-06T05:55:48;100945.22;;;14.65;51.35
68822;BME280;55834;50.870;4.606;2023-05-06T05:58:13;100943.00;;;14.77;51.04
68822;BME280;55834;50.870;4.606;2023-05-06T06:00:39;100952.16;;;14.90;50.63
68822;BME280;55834;50.870;4.606;2023-05-06T06:03:04;100947.94;;;15.05;50.50
68822;BME280;55834;50.870;4.606;2023-05-06T06:05:30;100947.28;;;15.20;50.41
68822;BME280;55834;50.870;4.606;2023-05-06T06:07:56;100947.44;;;15.38;49.96
68822;BME280;55834;50.870;4.606;2023-05-06T06:10:22;100952.13;;;15.51;49.42
68822;BME280;55834;50.870;4.606;2023-05-06T06:12:47;100946.16;;;15.65;49.30
68822;BME280;55834;50.870;4.606;2023-05-06T06:15:12;100941.81;;;15.83;48.72
68822;BME280;55834;50.870;4.606;2023-05-06T06:17:38;100943.72;;;15.98;48.28
68822;BME280;55834;50.870;4.606;2023-05-06T06:20:04;100946.81;;;15.89;47.79
68822;BME280;55834;50.870;4.606;2023-05-06T06:22:30;100941.34;;;15.92;47.74
68822;BME280;55834;50.870;4.606;2023-05-06T06:24:55;100945.88;;;15.90;47.79
68822;BME280;55834;50.870;4.606;2023-05-06T06:27:20;100944.78;;;15.94;48.08
68822;BME280;55834;50.870;4.606;2023-05-06T06:29:47;100937.09;;;16.07;48.10
68822;BME280;55834;50.870;4.606;2023-05-06T06:32:13;100941.78;;;16.21;47.93
68822;BME280;55834;50.870;4.606;2023-05-06T06:34:39;100934.03;;;16.34;47.38
68822;BME280;55834;50.870;4.606;2023-05-06T06:37:04;100940.38;;;16.31;47.35
68822;BME280;55834;50.870;4.606;2023-05-06T06:39:30;100935.75;;;16.35;46.76
68822;BME280;55834;50.870;4.606;2023-05-06T06:41:55;100949.09;;;16.52;47.35
68822;BME280;55834;50.870;4.606;2023-05-06T06:44:22;100944.56;;;16.54;46.56
68822;BME280;55834;50.870;4.606;2023-05-06T06:46:47;100947.38;;;16.51;47.02
68822;BME280;55834;50.870;4.606;2023-05-06T06:49:12;100946.44;;;16.69;46.77
68822;BME280;55834;50.870;4.606;2023-05-06T06:51:38;100948.09;;;16.72;46.39
68822;BME280;55834;50.870;4.606;2023-05-06T06:54:03;100951.78;;;16.87;46.47
68822;BME280;55834;50.870;4.606;2023-05-06T06:56:29;100952.59;;;17.06;46.14
68822;BME280;55834;50.870;4.606;2023-05-06T06:58:54;100957.84;;;17.25;45.82
68822;BME280;55834;50.870;4.606;2023-05-06T07:01:20;100953.38;;;17.42;46.00
68822;BME280;55834;50.870;4.606;2023-05-06T07:03:45;100959.13;;;17.51;45.45
68822;BME280;55834;50.870;4.606;2023-05-06T07:06:11;100964.63;;;17.48;45.17
68822;BME280;55834;50.870;4.606;2023-05-06T07:08:36;100962.19;;;17.44;45.42
68822;BME280;55834;50.870;4.606;2023-05-06T07:11:02;100959.28;;;17.64;45.86
68822;BME280;55834;50.870;4.606;2023-05-06T07:13:27;100955.13;;;17.76;45.52
68822;BME280;55834;50.870;4.606;2023-05-06T07:15:52;100952.81;;;18.01;45.26
68822;BME280;55834;50.870;4.606;2023-05-06T07:18:18;100961.75;;;17.85;45.01
68822;BME280;55834;50.870;4.606;2023-05-06T07:20:43;100968.13;;;17.82;45.15
68822;BME280;55834;50.870;4.606;2023-05-06T07:23:09;100968.50;;;17.92;45.60
68822;BME280;55834;50.870;4.606;2023-05-06T07:25:46;100961.00;;;17.98;45.25
68822;BME280;55834;50.870;4.606;2023-05-06T07:28:14;100963.06;;;17.93;44.56
68822;BME280;55834;50.870;4.606;2023-05-06T07:30:40;100963.13;;;17.76;44.68
68822;BME280;55834;50.870;4.606;2023-05-06T07:33:05;100957.16;;;17.71;45.18
68822;BME280;55834;50.870;4.606;2023-05-06T07:35:31;100957.06;;;17.72;46.34
68822;BME280;55834;50.870;4.606;2023-05-06T07:37:57;100958.84;;;18.05;45.66
68822;BME280;55834;50.870;4.606;2023-05-06T07:40:22;100953.22;;;18.25;45.33
68822;BME280;55834;50.870;4.606;2023-05-06T07:42:48;100959.53;;;18.24;45.36
68822;BME280;55834;50.870;4.606;2023-05-06T07:45:13;100957.97;;;18.36;44.95
68822;BME280;55834;50.870;4.606;2023-05-06T07:47:39;100964.94;;;18.23;45.56
68822;BME280;55834;50.870;4.606;2023-05-06T07:50:05;100963.16;;;18.23;45.33
68822;BME280;55834;50.870;4.606;2023-05-06T07:52:31;100969.53;;;17.89;45.83
68822;BME280;55834;50.870;4.606;2023-05-06T07:54:56;100964.00;;;17.76;46.49
68822;BME280;55834;50.870;4.606;2023-05-06T07:57:22;100971.44;;;18.03;46.00
68822;BME280;55834;50.870;4.606;2023-05-06T07:59:48;100968.94;;;18.16;45.59
68822;BME280;55834;50.870;4.606;2023-05-06T08:02:14;100962.81;;;17.98;45.96
68822;BME280;55834;50.870;4.606;2023-05-06T08:04:40;100965.75;;;18.09;45.95
68822;BME280;55834;50.870;4.606;2023-05-06T08:07:05;100968.94;;;18.16;45.27
68822;BME280;55834;50.870;4.606;2023-05-06T08:09:31;100965.22;;;18.02;46.25
68822;BME280;55834;50.870;4.606;2023-05-06T08:11:56;100964.53;;;18.15;46.25
68822;BME280;55834;50.870;4.606;2023-05-06T08:14:23;100967.38;;;18.28;45.65
68822;BME280;55834;50.870;4.606;2023-05-06T08:16:50;100963.44;;;18.49;45.10
68822;BME280;55834;50.870;4.606;2023-05-06T08:19:16;100967.84;;;18.66;45.55
68822;BME280;55834;50.870;4.606;2023-05-06T08:21:42;100966.03;;;18.97;44.89
68822;BME280;55834;50.870;4.606;2023-05-06T08:24:07;100960.50;;;18.69;44.56
68822;BME280;55834;50.870;4.606;2023-05-06T08:26:35;100962.59;;;18.64;43.88
68822;BME280;55834;50.870;4.606;2023-05-06T08:29:01;100973.38;;;17.50;46.17
68822;BME280;55834;50.870;4.606;2023-05-06T08:31:27;100961.63;;;17.04;46.47
68822;BME280;55834;50.870;4.606;2023-05-06T08:33:53;100973.06;;;17.23;47.53
68822;BME280;55834;50.870;4.606;2023-05-06T08:36:18;100960.28;;;17.79;46.81
68822;BME280;55834;50.870;4.606;2023-05-06T08:38:43;100957.34;;;18.31;45.78
68822;BME280;55834;50.870;4.606;2023-05-06T08:41:16;100963.22;;;17.90;45.76
68822;BME280;55834;50.870;4.606;2023-05-06T08:43:45;100958.78;;;18.07;45.06
68822;BME280;55834;50.870;4.606;2023-05-06T08:46:11;100958.47;;;18.59;44.83
68822;BME280;55834;50.870;4.606;2023-05-06T08:49:20;100944.94;;;19.21;44.32
68822;BME280;55834;50.870;4.606;2023-05-06T08:51:29;100950.44;;;19.48;43.63
68822;BME280;55834;50.870;4.606;2023-05-06T08:53:55;100950.69;;;18.70;43.56
68822;BME280;55834;50.870;4.606;2023-05-06T08:56:27;100955.03;;;18.41;44.95
68822;BME280;55834;50.870;4.606;2023-05-06T08:58:54;100942.38;;;18.75;45.37
68822;BME280;55834;50.870;4.606;2023-05-06T09:01:20;100951.78;;;18.66;44.50
68822;BME280;55834;50.870;4.606;2023-05-06T09:03:46;100948.56;;;19.05;44.95
68822;BME280;55834;50.870;4.606;2023-05-06T09:06:12;100957.66;;;19.17;44.84
68822;BME280;55834;50.870;4.606;2023-05-06T09:08:37;100959.22;;;19.64;42.59
68822;BME280;55834;50.870;4.606;2023-05-06T09:11:21;100959.41;;;19.32;43.65
68822;BME280;55834;50.870;4.606;2023-05-06T09:13:47;100956.84;;;19.31;42.52
68822;BME280;55834;50.870;4.606;2023-05-06T09:16:29;100953.16;;;18.73;44.21
68822;BME280;55834;50.870;4.606;2023-05-06T09:18:55;100959.88;;;19.53;43.87
68822;BME280;55834;50.870;4.606;2023-05-06T09:21:20;100951.75;;;19.98;42.83
68822;BME280;55834;50.870;4.606;2023-05-06T09:23:46;100942.00;;;20.24;42.10
68822;BME280;55834;50.870;4.606;2023-05-06T09:26:11;100950.00;;;20.38;41.24
68822;BME280;55834;50.870;4.606;2023-05-06T09:28:37;100942.81;;;20.39;41.07
68822;BME280;55834;50.870;4.606;2023-05-06T09:31:02;100954.69;;;20.08;41.37
68822;BME280;55834;50.870;4.606;2023-05-06T09:33:28;100951.28;;;19.34;41.55
68822;BME280;55834;50.870;4.606;2023-05-06T09:35:54;100949.66;;;19.31;42.04
68822;BME280;55834;50.870;4.606;2023-05-06T09:38:20;100954.06;;;19.47;43.33
68822;BME280;55834;50.870;4.606;2023-05-06T09:40:45;100947.72;;;19.76;42.61
68822;BME280;55834;50.870;4.606;2023-05-06T09:43:11;100941.00;;;20.12;42.16
68822;BME280;55834;50.870;4.606;2023-05-06T09:45:37;100942.72;;;20.40;41.33
68822;BME280;55834;50.870;4.606;2023-05-06T09:48:03;100938.94;;;20.70;40.39
68822;BME280;55834;50.870;4.606;2023-05-06T09:50:29;100941.88;;;20.53;39.77
68822;BME280;55834;50.870;4.606;2023-05-06T09:52:55;100929.28;;;20.80;39.05
68822;BME280;55834;50.870;4.606;2023-05-06T09:55:21;100940.63;;;20.98;39.30
68822;BME280;55834;50.870;4.606;2023-05-06T09:57:48;100932.22;;;21.03;39.33
68822;BME280;55834;50.870;4.606;2023-05-06T10:00:13;100940.09;;;21.18;38.78
68822;BME280;55834;50.870;4.606;2023-05-06T10:02:44;100931.78;;;21.09;38.33
68822;BME280;55834;50.870;4.606;2023-05-06T10:05:10;100933.88;;;20.11;39.41
68822;BME280;55834;50.870;4.606;2023-05-06T10:07:37;100934.44;;;20.16;40.39
68822;BME280;55834;50.870;4.606;2023-05-06T10:10:05;100920.59;;;20.64;40.03
68822;BME280;55834;50.870;4.606;2023-05-06T10:12:34;100931.72;;;19.89;40.68
68822;BME280;55834;50.870;4.606;2023-05-06T10:15:00;100918.53;;;20.27;39.83
68822;BME280;55834;50.870;4.606;2023-05-06T10:17:26;100919.69;;;20.23;40.22
68822;BME280;55834;50.870;4.606;2023-05-06T10:19:57;100910.13;;;20.59;39.47
68822;BME280;55834;50.870;4.606;2023-05-06T10:22:33;100919.31;;;20.95;38.76
68822;BME280;55834;50.870;4.606;2023-05-06T10:25:04;100913.66;;;20.47;39.17
68822;BME280;55834;50.870;4.606;2023-05-06T10:27:39;100919.09;;;20.05;41.05
68822;BME280;55834;50.870;4.606;2023-05-06T10:30:08;100909.56;;;20.54;40.65
68822;BME280;55834;50.870;4.606;2023-05-06T10:32:37;100915.53;;;19.91;40.75
68822;BME280;55834;50.870;4.606;2023-05-06T10:35:29;100916.63;;;20.42;40.66
68822;BME280;55834;50.870;4.606;2023-05-06T10:37:57;100908.28;;;20.87;39.32
68822;BME280;55834;50.870;4.606;2023-05-06T10:40:23;100905.59;;;20.47;39.08
68822;BME280;55834;50.870;4.606;2023-05-06T10:42:49;100902.03;;;20.86;37.87
68822;BME280;55834;50.870;4.606;2023-05-06T10:45:15;100900.22;;;21.12;38.19
68822;BME280;55834;50.870;4.606;2023-05-06T10:50:23;100898.69;;;21.59;38.11
68822;BME280;55834;50.870;4.606;2023-05-06T10:52:57;100896.03;;;21.83;37.68
68822;BME280;55834;50.870;4.606;2023-05-06T10:55:43;100892.94;;;21.40;38.27
68822;BME280;55834;50.870;4.606;2023-05-06T10:58:13;100893.41;;;21.71;36.75
68822;BME280;55834;50.870;4.606;2023-05-06T11:00:39;100891.88;;;21.79;37.59
68822;BME280;55834;50.870;4.606;2023-05-06T11:03:07;100890.03;;;21.43;37.10
68822;BME280;55834;50.870;4.606;2023-05-06T11:05:54;100876.31;;;22.09;36.40
68822;BME280;55834;50.870;4.606;2023-05-06T11:08:22;100870.13;;;22.55;36.01
68822;BME280;55834;50.870;4.606;2023-05-06T11:10:48;100875.94;;;22.13;36.28
68822;BME280;55834;50.870;4.606;2023-05-06T11:13:18;100868.63;;;22.50;35.46
68822;BME280;55834;50.870;4.606;2023-05-06T11:15:45;100867.72;;;22.74;35.64
68822;BME280;55834;50.870;4.606;2023-05-06T11:26:07;100871.56;;;20.87;37.41
68822;BME280;55834;50.870;4.606;2023-05-06T11:28:33;100870.19;;;21.33;37.62
68822;BME280;55834;50.870;4.606;2023-05-06T11:31:00;100858.56;;;21.93;35.60
68822;BME280;55834;50.870;4.606;2023-05-06T11:33:32;100856.84;;;22.29;36.06
68822;BME280;55834;50.870;4.606;2023-05-06T11:35:59;100859.19;;;22.69;35.09
68822;BME280;55834;50.870;4.606;2023-05-06T11:41:05;100865.22;;;22.95;34.50
68822;BME280;55834;50.870;4.606;2023-05-06T11:43:31;100862.50;;;22.37;34.21
68822;BME280;55834;50.870;4.606;2023-05-06T11:45:57;100864.81;;;21.70;33.74
68822;BME280;55834;50.870;4.606;2023-05-06T11:48:23;100862.06;;;21.95;35.41
68822;BME280;55834;50.870;4.606;2023-05-06T11:50:49;100868.31;;;21.46;35.44
68822;BME280;55834;50.870;4.606;2023-05-06T11:53:22;100861.50;;;22.03;35.74
68822;BME280;55834;50.870;4.606;2023-05-06T11:55:49;100857.34;;;22.34;35.24
68822;BME280;55834;50.870;4.606;2023-05-06T11:58:25;100862.16;;;21.94;35.06
68822;BME280;55834;50.870;4.606;2023-05-06T12:00:54;100859.19;;;22.10;34.37
68822;BME280;55834;50.870;4.606;2023-05-06T12:03:20;100857.44;;;22.33;34.09
68822;BME280;55834;50.870;4.606;2023-05-06T12:05:46;100862.72;;;22.45;35.10
68822;BME280;55834;50.870;4.606;2023-05-06T12:08:12;100865.06;;;22.50;34.14
68822;BME280;55834;50.870;4.606;2023-05-06T12:10:38;100867.13;;;22.35;34.52
68822;BME280;55834;50.870;4.606;2023-05-06T12:13:05;100867.66;;;22.51;33.57
68822;BME280;55834;50.870;4.606;2023-05-06T12:15:33;100867.44;;;22.30;33.60
68822;BME280;55834;50.870;4.606;2023-05-06T12:17:59;100870.50;;;22.02;33.71
68822;BME280;55834;50.870;4.606;2023-05-06T12:20:25;100874.09;;;22.14;34.45
68822;BME280;55834;50.870;4.606;2023-05-06T12:23:07;100880.53;;;21.63;34.27
68822;BME280;55834;50.870;4.606;2023-05-06T12:25:33;100875.06;;;21.89;35.71
68822;BME280;55834;50.870;4.606;2023-05-06T12:27:59;100880.88;;;21.95;36.05
68822;BME280;55834;50.870;4.606;2023-05-06T12:30:31;100881.38;;;22.00;35.94
68822;BME280;55834;50.870;4.606;2023-05-06T12:32:59;100883.09;;;22.01;35.97
68822;BME280;55834;50.870;4.606;2023-05-06T12:35:29;100879.75;;;22.22;35.32
68822;BME280;55834;50.870;4.606;2023-05-06T12:37:56;100885.00;;;21.75;35.89
68822;BME280;55834;50.870;4.606;2023-05-06T12:40:23;100888.59;;;22.00;35.46
68822;BME280;55834;50.870;4.606;2023-05-06T12:42:54;100885.16;;;22.22;35.32
68822;BME280;55834;50.870;4.606;2023-05-06T12:45:20;100886.41;;;22.05;35.66
68822;BME280;55834;50.870;4.606;2023-05-06T12:48:15;100885.50;;;21.18;37.22
68822;BME280;55834;50.870;4.606;2023-05-06T12:50:44;100881.22;;;21.41;37.28
68822;BME280;55834;50.870;4.606;2023-05-06T12:53:10;100878.91;;;21.60;36.74
68822;BME280;55834;50.870;4.606;2023-05-06T12:55:39;100877.22;;;21.83;35.72
68822;BME280;55834;50.870;4.606;2023-05-06T12:58:18;100877.84;;;21.87;34.90
68822;BME280;55834;50.870;4.606;2023-05-06T13:00:44;100879.00;;;21.72;36.15
68822;BME280;55834;50.870;4.606;2023-05-06T13:03:11;100884.38;;;21.72;35.05